Time;durP1;ratioP1;P1;durP2;ratioP2;P2;SDS_P1;SDS_P2;PMS_P1;PMS_P2;Temp;Humidity;BMP_temperature;BMP_pressure;BME280_temperature;BME280_humidity;BME280_pressure;Samples;Min_cycle;Max_cycle;Signal;HPM_P1;HPM_P2
2021/10/02 00:36:10;;;;;;;17.67;12.73;;;14.80;99.90;;;;;;5043456;28;20624;-64
2021/10/02 00:46:31;;;;;;;24.52;13.85;;;15.00;99.90;;;;;;5043879;28;20184;-64
2021/10/02 00:48:57;;;;;;;23.05;12.98;;;14.90;99.90;;;;;;5026882;28;20224;-64
2021/10/02 00:51:23;;;;;;;19.35;14.15;;;14.90;99.90;;;;;;5043389;28;20184;-65
2021/10/02 00:53:49;;;;;;;20.95;14.85;;;14.70;99.90;;;;;;5043886;28;20162;-64
2021/10/02 00:56:14;;;;;;;25.75;15.35;;;14.90;99.90;;;;;;5043600;28;20304;-64
2021/10/02 00:58:45;;;;;;;24.40;16.13;;;14.90;99.90;;;;;;5074100;28;20212;-64
2021/10/02 01:01:16;;;;;;;26.10;15.90;;;14.80;99.90;;;;;;5107770;28;20163;-64
2021/10/02 01:03:56;;;;;;;24.10;16.10;;;14.80;99.90;;;;;;5110342;28;20211;-64
2021/10/02 01:06:52;;;;;;;22.90;16.25;;;14.60;99.90;;;;;;5109932;28;20183;-64
2021/10/02 01:09:20;;;;;;;37.40;16.73;;;14.70;99.90;;;;;;5110043;28;20248;-64
2021/10/02 01:12:05;;;;;;;22.90;16.52;;;14.80;99.90;;;;;;5091671;28;20222;-64
2021/10/02 01:14:48;;;;;;;20.60;15.48;;;14.90;99.90;;;;;;5110263;28;20208;-64
2021/10/02 01:17:30;;;;;;;27.52;15.82;;;14.80;99.90;;;;;;5109633;28;20193;-64
2021/10/02 01:20:04;;;;;;;23.45;15.65;;;14.90;99.90;;;;;;5110146;28;20194;-64
2021/10/02 01:22:50;;;;;;;26.17;16.25;;;14.70;99.90;;;;;;5109748;28;20171;-64
2021/10/02 01:25:50;;;;;;;27.73;15.60;;;14.60;99.90;;;;;;5109875;28;20273;-64
2021/10/02 01:28:21;;;;;;;29.63;15.00;;;14.50;99.90;;;;;;5109565;28;20187;-64
2021/10/02 01:33:45;;;;;;;27.65;15.18;;;14.40;99.90;;;;;;5109915;28;20212;-64
2021/10/02 01:47:14;;;;;;;25.20;15.30;;;14.40;99.90;;;;;;5109120;28;20221;-64
2021/10/02 01:49:53;;;;;;;28.40;15.98;;;14.40;99.90;;;;;;5109335;28;20178;-64
2021/10/02 01:52:31;;;;;;;29.02;15.75;;;14.70;99.90;;;;;;5109134;28;20646;-64
2021/10/02 01:54:58;;;;;;;28.20;15.40;;;14.70;99.90;;;;;;5109321;28;20155;-64
2021/10/02 01:57:27;;;;;;;24.85;14.70;;;14.60;99.90;;;;;;5108911;28;20152;-64
2021/10/02 01:59:55;;;;;;;28.65;14.90;;;14.30;99.90;;;;;;5091100;28;20194;-64
2021/10/02 02:02:26;;;;;;;31.02;15.95;;;14.40;99.90;;;;;;5109008;28;20187;-64
2021/10/02 02:04:54;;;;;;;25.13;14.43;;;14.30;99.90;;;;;;5109254;28;20144;-64
2021/10/02 02:07:23;;;;;;;21.25;14.18;;;14.50;99.90;;;;;;5108393;28;20628;-64
2021/10/02 02:09:52;;;;;;;26.25;16.10;;;14.60;99.90;;;;;;5108843;28;20667;-64
2021/10/02 02:12:19;;;;;;;28.15;15.55;;;14.40;99.90;;;;;;5107523;28;20172;-64
2021/10/02 02:14:47;;;;;;;30.58;15.57;;;14.30;99.90;;;;;;5108942;28;20160;-64
2021/10/02 02:17:15;;;;;;;35.55;16.88;;;14.40;99.90;;;;;;5108659;28;20167;-64
2021/10/02 02:19:44;;;;;;;28.45;16.33;;;14.30;99.90;;;;;;5090485;28;20228;-64
2021/10/02 02:22:10;;;;;;;35.08;16.67;;;14.30;99.90;;;;;;5108479;28;20193;-64
2021/10/02 02:24:35;;;;;;;28.27;15.70;;;14.40;99.90;;;;;;5108609;28;20195;-64
2021/10/02 02:27:03;;;;;;;26.58;16.20;;;14.20;99.90;;;;;;5108662;28;20160;-64
2021/10/02 02:29:31;;;;;;;28.73;15.95;;;14.20;99.90;;;;;;5090486;28;20244;-63
2021/10/02 02:31:59;;;;;;;38.15;16.05;;;14.30;99.90;;;;;;5108468;28;20185;-64
2021/10/02 02:34:25;;;;;;;31.17;15.82;;;14.30;99.90;;;;;;5108505;28;20171;-64
2021/10/02 02:36:51;;;;;;;36.25;16.25;;;14.40;99.90;;;;;;5108172;28;20164;-64
2021/10/02 02:39:17;;;;;;;35.40;15.80;;;14.30;99.90;;;;;;5108300;28;20178;-63
2021/10/02 02:41:43;;;;;;;42.53;16.85;;;14.30;99.90;;;;;;5108511;28;20167;-64
2021/10/02 02:44:10;;;;;;;35.78;15.75;;;14.50;99.90;;;;;;5108303;28;20167;-64
2021/10/02 02:46:37;;;;;;;28.40;16.30;;;14.50;99.90;;;;;;5090067;28;20163;-64
2021/10/02 02:49:17;;;;;;;29.27;15.50;;;14.50;99.90;;;;;;5108115;28;20191;-64
2021/10/02 02:51:47;;;;;;;32.90;16.08;;;14.30;99.90;;;;;;5107875;28;20171;-64
2021/10/02 02:54:27;;;;;;;33.63;16.10;;;14.00;99.90;;;;;;5108007;28;20170;-64
2021/10/02 02:56:55;;;;;;;22.33;15.55;;;13.80;99.90;;;;;;5089634;28;20599;-64
2021/10/02 02:59:36;;;;;;;24.73;15.30;;;13.70;99.90;;;;;;5107879;28;20193;-64
2021/10/02 03:02:04;;;;;;;26.67;14.65;;;13.60;99.90;;;;;;5108001;28;20175;-64
2021/10/02 03:04:33;;;;;;;30.75;15.32;;;13.60;99.90;;;;;;5108343;28;20159;-64
2021/10/02 03:07:01;;;;;;;30.45;14.93;;;13.70;99.90;;;;;;5107502;28;20246;-64
2021/10/02 03:09:28;;;;;;;25.27;15.05;;;13.70;99.90;;;;;;5107631;28;20240;-64
2021/10/02 03:11:55;;;;;;;28.38;15.23;;;13.80;99.90;;;;;;5107607;28;20241;-64
2021/10/02 03:14:22;;;;;;;30.90;15.10;;;13.80;99.90;;;;;;5107807;28;20166;-64
2021/10/02 03:16:52;;;;;;;35.13;14.70;;;13.90;99.90;;;;;;5107641;28;20242;-63
2021/10/02 03:19:20;;;;;;;40.88;16.33;;;13.90;99.90;;;;;;5107616;28;20199;-64
2021/10/02 03:21:46;;;;;;;28.15;15.80;;;13.80;99.90;;;;;;5107278;28;20194;-64
2021/10/02 03:24:15;;;;;;;30.73;16.38;;;13.60;99.90;;;;;;5107151;28;20167;-64
2021/10/02 03:26:42;;;;;;;27.48;15.43;;;13.50;99.90;;;;;;5107396;28;20159;-64
2021/10/02 03:29:08;;;;;;;33.85;16.25;;;13.50;99.90;;;;;;5107328;28;20191;-64
2021/10/02 03:31:34;;;;;;;30.83;16.10;;;13.40;99.90;;;;;;5107350;28;20159;-64
2021/10/02 03:34:02;;;;;;;39.80;17.55;;;13.70;99.90;;;;;;5107255;28;20214;-64
2021/10/02 03:36:28;;;;;;;28.27;16.65;;;13.80;99.90;;;;;;5088886;28;20202;-64
2021/10/02 03:38:54;;;;;;;41.10;18.38;;;14.00;99.90;;;;;;5107116;28;20258;-64
2021/10/02 03:41:20;;;;;;;32.85;18.38;;;14.10;99.90;;;;;;5107377;28;20163;-64
2021/10/02 03:43:46;;;;;;;36.80;19.35;;;14.00;99.90;;;;;;5107075;28;20188;-64
2021/10/02 03:46:12;;;;;;;40.20;20.20;;;13.90;99.90;;;;;;5107277;28;20156;-64
2021/10/02 03:48:38;;;;;;;35.35;20.08;;;13.60;99.90;;;;;;5106882;28;20191;-64
2021/10/02 03:51:04;;;;;;;43.03;19.98;;;13.60;99.90;;;;;;5106803;28;20220;-64
2021/10/02 03:53:30;;;;;;;45.33;20.92;;;13.60;99.90;;;;;;5107176;28;20152;-63
2021/10/02 03:55:56;;;;;;;42.40;21.27;;;13.80;99.90;;;;;;5106936;28;20175;-63
2021/10/02 03:58:22;;;;;;;54.72;23.70;;;13.70;99.90;;;;;;5088545;28;20183;-63
2021/10/02 04:00:48;;;;;;;48.50;24.10;;;13.80;99.90;;;;;;5106916;28;20639;-64
2021/10/02 04:03:13;;;;;;;51.20;23.85;;;13.80;99.90;;;;;;5088645;28;20604;-64
2021/10/02 04:05:39;;;;;;;47.13;24.13;;;13.70;99.90;;;;;;5106509;28;20183;-64
2021/10/02 04:08:05;;;;;;;54.72;24.55;;;13.80;99.90;;;;;;5106312;28;20214;-64
2021/10/02 04:10:30;;;;;;;46.85;23.05;;;13.90;99.90;;;;;;5106550;28;20211;-64
2021/10/02 04:12:56;;;;;;;48.83;25.02;;;13.60;99.90;;;;;;5088525;28;20679;-63
2021/10/02 04:15:22;;;;;;;63.05;26.92;;;13.60;99.90;;;;;;5106578;28;20152;-64
2021/10/02 04:17:47;;;;;;;49.97;24.65;;;13.60;99.90;;;;;;5088313;28;20258;-64
2021/10/02 04:20:13;;;;;;;55.15;25.17;;;13.60;99.90;;;;;;5106555;28;20152;-64
2021/10/02 04:22:39;;;;;;;49.50;24.38;;;13.50;99.90;;;;;;5106319;28;20172;-64
2021/10/02 04:25:05;;;;;;;46.45;24.27;;;13.50;99.90;;;;;;5088024;28;20259;-64
2021/10/02 04:27:31;;;;;;;45.15;23.10;;;13.70;99.90;;;;;;5106092;28;20167;-63
2021/10/02 04:29:56;;;;;;;51.20;23.27;;;13.70;99.90;;;;;;5106414;28;20222;-64
2021/10/02 04:32:22;;;;;;;37.75;23.15;;;13.80;99.90;;;;;;5106040;28;20179;-64
2021/10/02 04:34:48;;;;;;;44.38;24.42;;;13.70;99.90;;;;;;5087850;28;20162;-64
2021/10/02 04:37:13;;;;;;;51.47;24.98;;;13.80;99.90;;;;;;5105648;28;20299;-63
2021/10/02 04:39:39;;;;;;;50.90;23.52;;;13.80;99.90;;;;;;5106158;28;20194;-64
2021/10/02 04:42:05;;;;;;;49.53;24.17;;;13.60;99.90;;;;;;5106308;28;20166;-64
2021/10/02 04:44:32;;;;;;;43.95;22.30;;;13.40;99.90;;;;;;5106382;28;20242;-64
2021/10/02 04:46:58;;;;;;;38.90;21.42;;;13.20;99.90;;;;;;5106093;28;20171;-64
2021/10/02 04:49:23;;;;;;;43.88;21.17;;;13.30;99.90;;;;;;5106018;28;20710;-64
2021/10/02 04:51:49;;;;;;;45.50;21.90;;;13.60;99.90;;;;;;5105704;28;20171;-64
2021/10/02 04:54:16;;;;;;;40.42;20.30;;;13.70;99.90;;;;;;5106536;28;20170;-64
2021/10/02 04:56:41;;;;;;;41.53;19.92;;;13.60;99.90;;;;;;5105978;28;20163;-64
2021/10/02 04:59:07;;;;;;;40.95;21.48;;;13.60;99.90;;;;;;5105824;28;20227;-64
2021/10/02 05:01:33;;;;;;;41.47;19.90;;;13.80;99.90;;;;;;5105929;28;20171;-63
2021/10/02 05:03:59;;;;;;;32.78;18.92;;;13.80;99.90;;;;;;5087654;28;20197;-63
2021/10/02 05:06:25;;;;;;;34.80;20.00;;;13.80;99.90;;;;;;5105804;28;20163;-63
2021/10/02 05:08:51;;;;;;;40.60;19.65;;;13.80;99.90;;;;;;5105689;28;20233;-64
2021/10/02 05:11:17;;;;;;;32.75;18.80;;;13.60;99.90;;;;;;5105698;28;20211;-64
2021/10/02 05:13:42;;;;;;;36.92;17.98;;;13.70;99.90;;;;;;5106248;28;20164;-64
2021/10/02 05:16:08;;;;;;;40.97;18.50;;;13.70;99.90;;;;;;5105968;28;20156;-64
2021/10/02 05:18:34;;;;;;;34.92;19.02;;;13.60;99.90;;;;;;5105721;28;20180;-64
2021/10/02 05:21:00;;;;;;;37.38;17.88;;;13.50;99.90;;;;;;5105466;28;20209;-63
2021/10/02 05:23:25;;;;;;;33.45;18.20;;;13.40;99.90;;;;;;5105856;28;20163;-63
2021/10/02 05:25:53;;;;;;;26.55;16.63;;;13.50;99.90;;;;;;5105428;28;20164;-63
2021/10/02 05:28:20;;;;;;;30.40;16.13;;;13.50;99.90;;;;;;5105586;28;20187;-64
2021/10/02 05:30:45;;;;;;;30.33;16.67;;;13.40;99.90;;;;;;5105799;28;20163;-64
2021/10/02 05:33:11;;;;;;;26.25;15.73;;;13.50;99.90;;;;;;5105637;28;20221;-64
2021/10/02 05:35:37;;;;;;;26.33;15.80;;;13.40;99.90;;;;;;5105845;28;20166;-63
2021/10/02 05:38:03;;;;;;;32.28;15.43;;;13.40;99.90;;;;;;5105297;28;20225;-64
2021/10/02 05:40:29;;;;;;;28.85;16.58;;;13.60;99.90;;;;;;5105470;28;20401;-63
2021/10/02 05:42:55;;;;;;;28.90;16.55;;;13.80;99.90;;;;;;5105712;28;20163;-63
2021/10/02 05:45:20;;;;;;;36.40;15.70;;;13.80;99.90;;;;;;5105829;28;20542;-64
2021/10/02 05:47:46;;;;;;;27.17;16.80;;;13.80;99.90;;;;;;5107715;28;20225;-63
2021/10/02 05:50:12;;;;;;;26.63;17.13;;;13.70;99.90;;;;;;5109375;28;20175;-63
2021/10/02 05:52:37;;;;;;;30.65;17.33;;;13.70;99.90;;;;;;5109063;28;20163;-63
2021/10/02 05:55:04;;;;;;;26.17;16.25;;;13.80;99.90;;;;;;5109347;28;20160;-64
2021/10/02 05:57:29;;;;;;;29.77;17.08;;;13.70;99.90;;;;;;5109105;28;20185;-64
2021/10/02 05:59:55;;;;;;;31.77;17.15;;;13.70;99.90;;;;;;5109129;28;20159;-64
2021/10/02 06:02:21;;;;;;;27.83;17.08;;;13.70;99.90;;;;;;5109225;28;20392;-64
2021/10/02 06:04:48;;;;;;;34.97;17.13;;;13.80;99.90;;;;;;5109179;28;20648;-64
2021/10/02 06:07:13;;;;;;;29.58;17.63;;;14.00;99.90;;;;;;5108611;28;20171;-63
2021/10/02 06:09:39;;;;;;;26.25;18.02;;;14.00;99.90;;;;;;5108763;28;20183;-64
2021/10/02 06:12:05;;;;;;;34.13;18.63;;;13.80;99.90;;;;;;5108763;28;20207;-64
2021/10/02 06:14:31;;;;;;;33.33;18.77;;;13.80;99.90;;;;;;5109246;28;20224;-64
2021/10/02 06:16:56;;;;;;;34.72;19.55;;;13.80;99.90;;;;;;5108708;28;20159;-63
2021/10/02 06:19:22;;;;;;;38.58;19.70;;;13.90;99.90;;;;;;5108577;28;20175;-64
2021/10/02 06:21:48;;;;;;;41.80;20.23;;;14.00;99.90;;;;;;5108336;28;20175;-64
2021/10/02 06:24:14;;;;;;;38.22;21.35;;;14.00;99.90;;;;;;5090407;28;20175;-63
2021/10/02 06:26:41;;;;;;;44.22;21.40;;;14.20;99.90;;;;;;5108632;28;20227;-63
2021/10/02 06:29:08;;;;;;;48.15;22.30;;;14.30;99.90;;;;;;5108284;28;20191;-63
2021/10/02 06:31:34;;;;;;;39.92;21.02;;;14.30;99.90;;;;;;5108211;28;20164;-64
2021/10/02 06:34:00;;;;;;;46.28;23.95;;;14.40;99.90;;;;;;5108214;28;20160;-64
2021/10/02 06:36:30;;;;;;;43.97;22.45;;;14.40;99.90;;;;;;5108042;28;20175;-64
2021/10/02 06:38:57;;;;;;;47.97;23.02;;;14.40;99.90;;;;;;5108211;28;20191;-64
2021/10/02 06:41:23;;;;;;;42.83;22.15;;;14.60;99.90;;;;;;5108321;28;20205;-63
2021/10/02 06:43:49;;;;;;;36.97;20.92;;;14.60;99.90;;;;;;5108189;28;20300;-64
2021/10/02 06:46:15;;;;;;;40.83;19.88;;;14.50;99.90;;;;;;5108232;28;20189;-63
2021/10/02 06:48:41;;;;;;;40.85;20.35;;;14.60;99.90;;;;;;5107898;28;20194;-64
2021/10/02 06:51:08;;;;;;;39.17;19.42;;;14.50;99.90;;;;;;5107577;28;20159;-64
2021/10/02 06:53:34;;;;;;;33.55;18.15;;;14.30;99.90;;;;;;5108139;28;20164;-64
2021/10/02 06:56:00;;;;;;;36.35;17.23;;;14.40;99.90;;;;;;5107864;28;20159;-64
2021/10/02 06:58:26;;;;;;;28.67;17.98;;;14.60;99.90;;;;;;5107166;28;20164;-64
2021/10/02 07:00:51;;;;;;;31.38;16.60;;;14.60;99.90;;;;;;5107888;28;20164;-63
2021/10/02 07:03:17;;;;;;;36.67;18.38;;;14.80;99.90;;;;;;5089574;28;20228;-64
2021/10/02 07:05:42;;;;;;;41.90;19.40;;;14.70;99.90;;;;;;5107748;28;20228;-64
2021/10/02 07:08:08;;;;;;;32.72;18.30;;;14.70;99.90;;;;;;5106750;28;20320;-64
2021/10/02 07:10:34;;;;;;;37.78;19.25;;;14.70;99.90;;;;;;5107210;28;20206;-63
2021/10/02 07:13:02;;;;;;;36.88;19.08;;;14.90;99.90;;;;;;5107401;28;20167;-64
2021/10/02 07:15:28;;;;;;;50.38;20.02;;;14.80;99.90;;;;;;5073026;28;20222;-64
2021/10/02 07:17:54;;;;;;;36.95;18.88;;;14.80;99.90;;;;;;5106910;28;20231;-64
2021/10/02 07:20:22;;;;;;;38.63;19.27;;;14.90;99.90;;;;;;5107094;28;20163;-64
2021/10/02 07:22:47;;;;;;;42.33;20.08;;;15.00;99.90;;;;;;5107094;28;20224;-64
2021/10/02 07:25:15;;;;;;;42.08;20.55;;;15.00;99.90;;;;;;5088551;28;20156;-64
2021/10/02 07:27:42;;;;;;;31.50;18.40;;;15.00;99.90;;;;;;5106855;28;20159;-64
2021/10/02 07:30:10;;;;;;;36.47;18.70;;;14.80;99.90;;;;;;5107126;28;20166;-64
2021/10/02 07:32:36;;;;;;;44.83;18.63;;;14.70;99.90;;;;;;5107067;28;20268;-64
2021/10/02 07:35:03;;;;;;;35.95;17.20;;;14.90;99.90;;;;;;5107044;28;20164;-64
2021/10/02 07:37:29;;;;;;;35.17;18.02;;;15.00;99.90;;;;;;5088482;28;20293;-64
2021/10/02 07:39:54;;;;;;;36.95;18.83;;;15.20;99.90;;;;;;5106638;28;20171;-64
2021/10/02 07:42:20;;;;;;;31.05;18.10;;;15.10;99.90;;;;;;5106872;28;20160;-64
2021/10/02 07:44:53;;;;;;;41.45;19.42;;;15.30;99.90;;;;;;5106777;28;20155;-64
2021/10/02 07:47:19;;;;;;;44.33;19.75;;;15.30;99.90;;;;;;5106780;28;20163;-64
2021/10/02 07:49:49;;;;;;;31.50;19.10;;;15.40;99.90;;;;;;5106541;28;20183;-63
2021/10/02 07:52:15;;;;;;;40.38;21.15;;;15.30;99.90;;;;;;5105663;28;20167;-64
2021/10/02 07:54:43;;;;;;;34.83;20.58;;;15.40;99.90;;;;;;5106667;28;20154;-64
2021/10/02 07:57:09;;;;;;;29.80;18.80;;;15.40;99.90;;;;;;5106589;28;20205;-63
2021/10/02 07:59:36;;;;;;;33.33;18.08;;;15.50;99.90;;;;;;5106393;28;20175;-63
2021/10/02 08:02:05;;;;;;;33.38;17.85;;;15.30;99.90;;;;;;5106295;28;20168;-63
2021/10/02 08:04:31;;;;;;;34.05;16.92;;;15.30;99.90;;;;;;5105698;28;20607;-64
2021/10/02 08:06:57;;;;;;;32.40;18.92;;;15.30;99.90;;;;;;5105935;28;20168;-64
2021/10/02 08:09:27;;;;;;;28.63;16.83;;;15.30;99.90;;;;;;5087500;28;20206;-65
2021/10/02 08:11:53;;;;;;;28.25;16.50;;;15.40;99.90;;;;;;5105067;28;20218;-64
2021/10/02 08:14:19;;;;;;;30.30;15.80;;;15.50;99.90;;;;;;5106220;28;20159;-64
2021/10/02 08:16:47;;;;;;;27.25;14.60;;;15.60;99.90;;;;;;5105918;28;20160;-64
2021/10/02 08:19:15;;;;;;;29.52;14.60;;;15.60;99.90;;;;;;5106106;28;20178;-64
2021/10/02 08:21:42;;;;;;;30.60;12.68;;;15.60;99.90;;;;;;5105432;28;20207;-63
2021/10/02 08:24:08;;;;;;;22.02;12.20;;;15.70;99.90;;;;;;5106264;28;20167;-64
2021/10/02 08:26:34;;;;;;;31.58;13.80;;;15.70;99.90;;;;;;5106341;28;20169;-64
2021/10/02 08:29:02;;;;;;;20.60;10.77;;;15.90;99.90;;;;;;5105905;28;20251;-63
2021/10/02 08:31:28;;;;;;;22.33;10.30;;;16.00;99.90;;;;;;5105915;28;20156;-63
2021/10/02 08:33:54;;;;;;;17.92;10.18;;;16.00;99.90;;;;;;5106030;28;20523;-64
2021/10/02 08:36:19;;;;;;;19.73;8.40;;;16.00;99.90;;;;;;5105745;28;20167;-63
2021/10/02 08:38:46;;;;;;;17.48;8.55;;;16.10;99.90;;;;;;5105934;28;20167;-63
2021/10/02 08:41:15;;;;;;;17.90;8.88;;;16.10;99.90;;;;;;5122057;28;20266;-63
2021/10/02 08:43:41;;;;;;;23.73;9.10;;;16.10;99.90;;;;;;5087950;28;20191;-63
2021/10/02 08:46:11;;;;;;;19.17;8.32;;;16.30;99.90;;;;;;5106471;28;20167;-63
2021/10/02 08:48:38;;;;;;;15.75;8.25;;;16.20;99.90;;;;;;5105669;28;20210;-63
2021/10/02 08:51:05;;;;;;;15.77;7.47;;;16.10;99.90;;;;;;5087484;28;20171;-63
2021/10/02 08:53:33;;;;;;;15.90;7.55;;;16.10;99.90;;;;;;5106070;28;20160;-64
2021/10/02 08:56:00;;;;;;;15.45;7.45;;;16.00;99.90;;;;;;5105783;28;20284;-64
2021/10/02 08:58:26;;;;;;;10.73;6.22;;;16.00;99.90;;;;;;5105722;28;20167;-64
2021/10/02 09:00:52;;;;;;;11.23;6.28;;;16.00;99.90;;;;;;5106047;28;20162;-64
2021/10/02 09:03:19;;;;;;;16.40;6.60;;;15.90;99.90;;;;;;5105466;28;20178;-63
2021/10/02 09:05:46;;;;;;;16.90;6.32;;;16.10;99.90;;;;;;5106038;28;20212;-64
2021/10/02 09:08:12;;;;;;;12.55;5.50;;;16.10;99.90;;;;;;5105113;28;20202;-63
2021/10/02 09:10:38;;;;;;;14.35;6.00;;;16.30;99.90;;;;;;5105596;28;20249;-63
2021/10/02 09:13:04;;;;;;;10.30;5.18;;;16.30;99.90;;;;;;5105931;28;20152;-63
2021/10/02 09:15:30;;;;;;;15.02;5.63;;;16.30;99.90;;;;;;5105981;28;20593;-64
2021/10/02 09:17:56;;;;;;;13.13;5.65;;;16.50;99.90;;;;;;5105350;28;20163;-64
2021/10/02 09:20:23;;;;;;;13.07;5.18;;;16.60;99.90;;;;;;5105825;28;20155;-63
2021/10/02 09:23:01;;;;;;;14.15;4.65;;;16.60;99.90;;;;;;5107968;28;20164;-63
2021/10/02 09:25:30;;;;;;;19.63;4.90;;;16.70;99.90;;;;;;5109460;28;20159;-64
2021/10/02 09:28:13;;;;;;;10.30;4.05;;;16.80;99.90;;;;;;5109234;28;20155;-64
2021/10/02 09:30:42;;;;;;;15.05;4.75;;;16.90;99.90;;;;;;5109503;28;20227;-63
2021/10/02 09:33:15;;;;;;;15.65;4.70;;;16.90;99.90;;;;;;5091048;28;20167;-64
2021/10/02 09:35:42;;;;;;;7.25;4.40;;;16.70;99.90;;;;;;5109596;28;20155;-64
2021/10/02 09:38:10;;;;;;;11.45;4.25;;;16.80;99.90;;;;;;5108868;28;20186;-64
2021/10/02 09:40:36;;;;;;;12.73;4.40;;;17.00;99.90;;;;;;5109238;28;20191;-64
2021/10/02 09:43:03;;;;;;;11.80;3.72;;;17.10;99.90;;;;;;5109205;28;20167;-64
2021/10/02 09:45:36;;;;;;;5.65;3.63;;;17.00;99.90;;;;;;5109206;28;20187;-64
2021/10/02 09:48:12;;;;;;;9.45;3.35;;;17.20;99.90;;;;;;5108733;28;20155;-64
2021/10/02 09:50:41;;;;;;;8.35;3.22;;;17.20;99.90;;;;;;5109360;28;20149;-63
2021/10/02 09:53:12;;;;;;;13.93;3.08;;;17.30;99.90;;;;;;5108929;28;20231;-64
2021/10/02 09:55:41;;;;;;;10.20;3.03;;;17.30;99.90;;;;;;5109051;28;20152;-64
2021/10/02 09:58:10;;;;;;;10.35;2.80;;;17.20;99.90;;;;;;5108651;28;20168;-64
2021/10/02 10:00:38;;;;;;;8.50;3.35;;;17.20;99.90;;;;;;5108852;28;20170;-64
2021/10/02 10:03:09;;;;;;;9.85;3.08;;;17.20;99.90;;;;;;5108688;28;20173;-64
2021/10/02 10:05:40;;;;;;;7.72;2.50;;;17.30;99.90;;;;;;5108455;28;20160;-64
2021/10/02 10:08:08;;;;;;;10.18;2.90;;;17.30;99.90;;;;;;5108025;28;20167;-65
2021/10/02 10:10:36;;;;;;;8.55;2.95;;;17.40;99.90;;;;;;5106877;28;20207;-64
2021/10/02 10:13:13;;;;;;;6.90;3.03;;;17.50;99.90;;;;;;5108164;28;20167;-64
2021/10/02 10:15:43;;;;;;;4.50;2.88;;;17.60;99.90;;;;;;5108269;28;20175;-64
2021/10/02 10:18:24;;;;;;;5.25;2.72;;;17.70;99.90;;;;;;5108028;28;20163;-64
2021/10/02 10:20:56;;;;;;;9.38;2.90;;;17.80;99.90;;;;;;5107853;28;20171;-64
2021/10/02 10:23:42;;;;;;;7.75;3.25;;;17.60;99.90;;;;;;5107574;28;20231;-63
2021/10/02 10:26:14;;;;;;;7.10;2.80;;;17.60;99.90;;;;;;5108100;28;20194;-63
2021/10/02 10:28:42;;;;;;;7.07;2.70;;;17.50;99.90;;;;;;5107758;28;20187;-64
2021/10/02 10:31:14;;;;;;;7.13;2.83;;;17.60;99.90;;;;;;5107691;28;20167;-64
2021/10/02 10:33:42;;;;;;;8.95;2.25;;;17.50;99.90;;;;;;5106532;28;20693;-64
2021/10/02 10:36:08;;;;;;;10.45;2.60;;;17.50;99.90;;;;;;5107359;28;20535;-64
2021/10/02 10:38:35;;;;;;;7.80;2.20;;;17.40;99.90;;;;;;5107579;28;20168;-64
2021/10/02 10:41:03;;;;;;;6.40;2.15;;;17.50;99.90;;;;;;5107683;28;20167;-64
2021/10/02 10:43:30;;;;;;;5.40;2.00;;;17.60;99.90;;;;;;5107354;28;20167;-64
2021/10/02 10:46:03;;;;;;;6.90;2.40;;;17.80;99.90;;;;;;5107847;28;20225;-64
2021/10/02 10:48:29;;;;;;;15.70;2.53;;;17.60;99.90;;;;;;5089292;28;20190;-64
2021/10/02 10:51:20;;;;;;;6.97;2.75;;;17.70;99.90;;;;;;5107703;28;20170;-64
2021/10/02 10:53:48;;;;;;;5.00;2.40;;;17.80;99.90;;;;;;5107232;28;20251;-63
2021/10/02 10:56:17;;;;;;;4.88;2.10;;;17.80;99.90;;;;;;5089095;28;20172;-64
2021/10/02 10:58:44;;;;;;;9.27;2.40;;;17.80;99.90;;;;;;5107335;28;20834;-64
2021/10/02 11:01:11;;;;;;;5.53;2.40;;;17.90;99.90;;;;;;5107343;28;20532;-64
2021/10/02 11:03:46;;;;;;;5.18;2.05;;;18.00;99.90;;;;;;5107262;28;20191;-64
2021/10/02 11:06:16;;;;;;;7.90;2.53;;;17.90;99.90;;;;;;5106416;28;20200;-64
2021/10/02 11:09:00;;;;;;;9.88;2.65;;;17.70;99.90;;;;;;5106609;28;20254;-64
2021/10/02 11:11:50;;;;;;;7.35;2.28;;;17.80;99.90;;;;;;5088444;28;20211;-65
2021/10/02 11:14:18;;;;;;;6.15;2.00;;;17.90;99.90;;;;;;5096250;28;20191;-64
2021/10/02 11:16:45;;;;;;;16.23;2.75;;;17.80;99.90;;;;;;5107086;28;20230;-64
2021/10/02 11:19:33;;;;;;;5.78;2.08;;;17.80;99.90;;;;;;5106505;28;20168;-64
2021/10/02 11:22:00;;;;;;;4.68;1.90;;;17.60;99.90;;;;;;5106635;28;20182;-64
2021/10/02 11:24:40;;;;;;;5.93;1.80;;;17.50;99.90;;;;;;5106628;28;20163;-64
2021/10/02 11:27:08;;;;;;;3.72;2.00;;;17.60;99.90;;;;;;5106764;28;20182;-64
2021/10/02 11:29:35;;;;;;;3.15;1.65;;;17.50;99.90;;;;;;5106512;28;20191;-64
2021/10/02 11:32:21;;;;;;;6.78;1.52;;;17.90;99.90;;;;;;5106290;28;20167;-65
2021/10/02 11:35:09;;;;;;;7.20;1.90;;;17.80;99.90;;;;;;5105492;28;20162;-64
2021/10/02 11:37:52;;;;;;;3.80;1.58;;;17.60;99.90;;;;;;5087894;28;20171;-64
2021/10/02 11:40:35;;;;;;;4.45;1.98;;;17.90;99.90;;;;;;5105900;28;20586;-64
2021/10/02 11:43:13;;;;;;;4.95;1.90;;;18.00;99.90;;;;;;5105369;28;20539;-64
2021/10/02 11:45:56;;;;;;;2.95;1.75;;;18.00;99.90;;;;;;5105993;28;20177;-64
2021/10/02 11:48:41;;;;;;;8.30;2.50;;;18.10;99.90;;;;;;5106117;28;20190;-64
2021/10/02 11:51:29;;;;;;;8.40;2.40;;;18.00;99.90;;;;;;5106343;28;20246;-64
2021/10/02 11:54:07;;;;;;;7.95;2.75;;;18.10;99.90;;;;;;5106166;28;20163;-64
2021/10/02 11:56:35;;;;;;;5.32;2.65;;;18.30;99.90;;;;;;5088248;28;20257;-64
2021/10/02 11:59:02;;;;;;;10.30;3.50;;;18.30;99.90;;;;;;5087394;28;20235;-64
2021/10/02 12:01:33;;;;;;;8.68;3.47;;;18.20;99.90;;;;;;5105700;28;20168;-64
2021/10/02 12:04:04;;;;;;;7.88;3.80;;;18.30;99.90;;;;;;5105858;28;20209;-64
2021/10/02 12:06:33;;;;;;;7.00;3.13;;;18.30;99.90;;;;;;5106010;28;20659;-63
2021/10/02 12:09:00;;;;;;;5.60;3.70;;;18.10;99.90;;;;;;5105992;28;20190;-64
2021/10/02 12:11:26;;;;;;;12.88;4.20;;;17.90;99.90;;;;;;5087534;28;20579;-64
2021/10/02 12:13:54;;;;;;;6.70;3.88;;;17.90;99.90;;;;;;5106100;28;20171;-63
2021/10/02 12:16:29;;;;;;;7.05;3.55;;;17.90;99.90;;;;;;5087725;28;20641;-63
2021/10/02 12:19:06;;;;;;;11.88;3.50;;;17.60;99.90;;;;;;5105490;28;20166;-63
2021/10/02 12:21:40;;;;;;;9.50;2.63;;;17.40;99.90;;;;;;5105807;28;20159;-63
2021/10/02 12:24:26;;;;;;;5.05;2.08;;;17.20;99.90;;;;;;5106416;28;20162;-63
2021/10/02 12:27:05;;;;;;;11.02;2.88;;;17.20;99.90;;;;;;5106623;28;20161;-64
2021/10/02 12:29:36;;;;;;;3.17;2.45;;;17.30;99.90;;;;;;5088005;28;20282;-64
2021/10/02 12:32:13;;;;;;;10.65;3.47;;;17.30;99.90;;;;;;5106348;28;20220;-63
2021/10/02 12:34:45;;;;;;;7.75;2.47;;;17.30;99.90;;;;;;5106264;28;20174;-63
2021/10/02 12:37:10;;;;;;;3.85;2.15;;;17.30;99.90;;;;;;5105815;28;20159;-64
2021/10/02 12:39:48;;;;;;;15.52;3.00;;;17.30;99.90;;;;;;5106178;28;20173;-64
2021/10/02 12:42:31;;;;;;;10.20;2.95;;;17.30;99.90;;;;;;5106198;28;20237;-63
2021/10/02 12:44:56;;;;;;;10.52;2.42;;;17.40;99.90;;;;;;5105566;28;20170;-63
2021/10/02 12:47:28;;;;;;;7.20;2.30;;;17.60;99.90;;;;;;5106225;28;20174;-63
2021/10/02 12:49:57;;;;;;;6.38;2.08;;;17.50;99.90;;;;;;5105869;28;20221;-63
2021/10/02 12:52:23;;;;;;;5.20;1.95;;;17.80;99.90;;;;;;5105736;28;20182;-63
2021/10/02 12:54:51;;;;;;;4.65;1.50;;;18.10;99.90;;;;;;5106212;28;20231;-63
2021/10/02 12:57:33;;;;;;;6.18;1.65;;;18.20;99.90;;;;;;5107824;28;20162;-63
2021/10/02 13:00:01;;;;;;;9.02;1.75;;;18.10;99.90;;;;;;5110068;28;20477;-63
2021/10/02 13:02:29;;;;;;;5.72;1.60;;;17.90;99.90;;;;;;5110137;28;20163;-63
2021/10/02 13:04:56;;;;;;;7.13;1.40;;;17.90;99.90;;;;;;5110094;28;20205;-63
2021/10/02 13:07:27;;;;;;;10.15;2.10;;;18.00;99.90;;;;;;5109513;28;20182;-63
2021/10/02 13:10:03;;;;;;;4.00;1.27;;;18.00;99.90;;;;;;5109607;28;20218;-63
2021/10/02 13:12:35;;;;;;;4.13;1.80;;;18.10;99.90;;;;;;5110014;28;20177;-63
2021/10/02 13:15:07;;;;;;;5.20;1.42;;;18.00;99.90;;;;;;5110024;28;20160;-63
2021/10/02 13:17:33;;;;;;;5.90;1.77;;;18.00;99.90;;;;;;5110029;28;20163;-63
2021/10/02 13:20:14;;;;;;;6.80;1.50;;;18.00;99.90;;;;;;5109667;28;20163;-63
2021/10/02 13:22:44;;;;;;;6.20;1.73;;;18.20;99.90;;;;;;5109529;28;20232;-63
2021/10/02 13:25:13;;;;;;;4.53;2.45;;;18.10;99.90;;;;;;5109842;28;20167;-63
2021/10/02 13:27:42;;;;;;;12.25;2.28;;;18.00;99.90;;;;;;5091226;28;20213;-63
2021/10/02 13:30:18;;;;;;;11.55;1.92;;;18.00;99.90;;;;;;5109195;28;20558;-63
2021/10/02 13:33:05;;;;;;;11.02;1.88;;;18.00;99.90;;;;;;5091016;28;20199;-63
2021/10/02 13:35:34;;;;;;;9.20;1.73;;;18.20;99.90;;;;;;5109802;28;20148;-63
2021/10/02 13:38:00;;;;;;;15.40;1.80;;;18.20;99.90;;;;;;5091089;28;20171;-63
2021/10/02 13:40:30;;;;;;;8.27;1.98;;;18.20;99.90;;;;;;5109328;28;20221;-63